Terminal Aerodrome Forecast
Issued by NWS

Home | Current Version | Previous Version | Text Only | Print | Product List | Glossary On
Versions: 1 2 3 4 5 6 7 8 9 10 11 12 13 14 15 16 17 18 19
000
FTUS43 KDLH 232300
TAFBRD
TAF
KBRD 232334Z 2400/2424 36009KT 6SM BR BKN009 OVC015
      TEMPO 2400/2404 5SM -SNDZ OVC015
     FM240600 34006KT 6SM BR OVC006
     FM241900 33006KT P6SM OVC012=

USA.gov is the U.S. government's official web portal to all federal, state and local government web resources and services.